Home > Products > Valid Products > TAF

000
FTUS43 KGLD 271720
TAFMCK
TAF
KMCK 271720Z 2718/2818 15010G16KT P6SM VCSH SCT030 BKN050
     FM280000 14012G18KT P6SM VCTS SCT050CB BKN100
      TEMPO 2801/2805 VRB25G35KT 3SM TSRA BR BKN040CB
     FM280800 12008KT 3SM BR VCSH BKN015
     FM281300 14010KT 6SM BR SCT010 BKN030
     FM281500 17010KT P6SM SCT010 BKN050=



000
FTUS43 KGLD 271720
TAFGLD
TAF
KGLD 271720Z 2718/2818 16012G20KT P6SM SCT050 BKN150
     FM272300 15015G23KT P6SM VCTS BKN045CB
      TEMPO 2723/2803 VRB25G35KT 3SM TSRA BR
     FM280500 16011KT P6SM VCSH SCT025 BKN150
     FM280900 19010KT 6SM BR SCT010 BKN025
     FM281300 20010KT P6SM SCT010 BKN050=



000
FTUS43 KGLD 271720
TAFMCK
TAF
KMCK 271720Z 2718/2818 15010G16KT P6SM VCSH SCT030 BKN050
     FM280000 14012G18KT P6SM VCTS SCT050CB BKN100
      TEMPO 2801/2805 VRB25G35KT 3SM TSRA BR BKN040CB
     FM280800 12008KT 3SM BR VCSH BKN015
     FM281300 14010KT 6SM BR SCT010 BKN030
     FM281500 17010KT P6SM SCT010 BKN050=



000
FTUS43 KGLD 271316 AAA
TAFGLD
TAF AMD
KGLD 271316Z 2713/2812 16013KT P6SM -RA SCT060 BKN100
     FM271500 16012G18KT P6SM BKN070
     FM271900 16016G25KT P6SM SCT050 SCT250
     FM272300 15015G23KT P6SM VCTS BKN045CB
      TEMPO 2800/2804 VRB25G35KT 4SM TSRA BR
     FM280500 16011KT P6SM SCT030 BKN150
     FM280800 17010KT P6SM SCT015 BKN030
      TEMPO 2809/2812 SCT007 OVC015=



000
FTUS43 KGLD 271120
TAFMCK
TAF
KMCK 271120Z 2712/2812 VRB04KT P6SM BKN080
     FM271400 14007KT P6SM BKN080
     FM271800 15012G17KT P6SM VCSH SCT030 BKN050
     FM272300 14012G17KT P6SM VCTS SCT050CB BKN100
      TEMPO 2801/2805 VRB25G35KT 4SM TSRA BR BKN040CB
     FM280700 14008KT P6SM VCSH SCT015 BKN050
      TEMPO 2808/2812 BKN015=



000
FTUS43 KGLD 271120
TAFGLD
TAF
KGLD 271120Z 2712/2812 15009KT P6SM BKN100
     FM271500 16012G18KT P6SM BKN070
     FM271900 16016G25KT P6SM SCT050 SCT250
     FM272300 15015G23KT P6SM VCTS BKN045CB
      TEMPO 2800/2804 VRB25G35KT 4SM TSRA BR
     FM280500 16011KT P6SM SCT030 BKN150
     FM280800 17010KT P6SM SCT015 BKN030
      TEMPO 2809/2812 SCT007 OVC015=



000
FTUS43 KGLD 271120
TAFMCK
TAF
KMCK 271120Z 2712/2812 VRB04KT P6SM BKN080
     FM271400 14007KT P6SM BKN080
     FM271800 15012G17KT P6SM VCSH SCT030 BKN050
     FM272300 14012G17KT P6SM VCTS SCT050CB BKN100
      TEMPO 2801/2805 VRB25G35KT 4SM TSRA BR BKN040CB
     FM280700 14008KT P6SM VCSH SCT015 BKN050
      TEMPO 2808/2812 BKN015=



000
FTUS43 KGLD 271120
TAFGLD
TAF
KGLD 271120Z 2712/2812 15009KT P6SM BKN100
     FM271500 16012G18KT P6SM BKN070
     FM271900 16016G25KT P6SM SCT050 SCT250
     FM272300 15015G23KT P6SM VCTS BKN045CB
      TEMPO 2800/2804 VRB25G35KT 4SM TSRA BR
     FM280500 16011KT P6SM SCT030 BKN150
     FM280800 17010KT P6SM SCT015 BKN030
      TEMPO 2809/2812 SCT007 OVC015=



000
FTUS43 KGLD 271120
TAFMCK
TAF
KMCK 271120Z 2712/2812 VRB04KT P6SM BKN080
     FM271400 14007KT P6SM BKN080
     FM271800 15012G17KT P6SM VCSH SCT030 BKN050
     FM272300 14012G17KT P6SM VCTS SCT050CB BKN100
      TEMPO 2801/2805 VRB25G35KT 4SM TSRA BR BKN040CB
     FM280700 14008KT P6SM VCSH SCT015 BKN050
      TEMPO 2808/2812 BKN015=



000
FTUS43 KGLD 271120
TAFMCK
TAF
KMCK 271120Z 2712/2812 VRB04KT P6SM BKN080
     FM271400 14007KT P6SM BKN080
     FM271800 15012G17KT P6SM VCSH SCT030 BKN050
     FM272300 14012G17KT P6SM VCTS SCT050CB BKN100
      TEMPO 2801/2805 VRB25G35KT 4SM TSRA BR BKN040CB
     FM280700 14008KT P6SM VCSH SCT015 BKN050
      TEMPO 2808/2812 BKN015=



000
FTUS43 KGLD 270531
TAFMCK
TAF
KMCK 270531Z 2706/2806 12004KT P6SM FEW250
     FM271400 15010KT P6SM BKN200
     FM272200 14014G22KT P6SM VCTS BKN050CB
      TEMPO 2723/2802 3SM +TSRA SCT025 OVC050CB
     FM280200 12007KT P6SM -SHRA VCTS BKN050CB
     FM280500 11006KT P6SM BKN045=



000
FTUS43 KGLD 270531
TAFGLD
TAF
KGLD 270531Z 2706/2806 14005KT P6SM SCT100 BKN250 WS002/16040KT
     FM271300 17010KT P6SM BKN250
     FM271600 16016G24KT P6SM FEW050 BKN200
     FM272200 16011KT P6SM VCTS BKN050CB
     FM280200 16009KT P6SM BKN040=



000
FTUS43 KGLD 270531
TAFMCK
TAF
KMCK 270531Z 2706/2806 12004KT P6SM FEW250
     FM271400 15010KT P6SM BKN200
     FM272200 14014G22KT P6SM VCTS BKN050CB
      TEMPO 2723/2802 3SM +TSRA SCT025 OVC050CB
     FM280200 12007KT P6SM -SHRA VCTS BKN050CB
     FM280500 11006KT P6SM BKN045=



000
FTUS43 KGLD 270505 AAA
TAFGLD
TAF AMD
KGLD 270505Z 2705/2724 15005KT P6SM BKN150 WS002/13040KT
     FM271500 17015G23KT P6SM SCT150
     FM272000 16013G21KT P6SM VCTS BKN060CB=



000
FTUS43 KGLD 270505 AAA
TAFGLD
TAF AMD
KGLD 270505Z 2705/2724 15005KT P6SM BKN150 WS002/13040KT
     FM271500 17015G23KT P6SM SCT150
     FM272000 16013G21KT P6SM VCTS BKN060CB=



000
FTUS43 KGLD 262337
TAFMCK
TAF
KMCK 262337Z 2700/2724 06005KT P6SM SCT060
     FM270600 12004KT P6SM SCT250
     FM271400 15010KT P6SM BKN250
     FM271900 14012G17KT P6SM BKN070
     FM272300 14016G24KT 6SM +TSRA BKN040CB=



000
FTUS43 KGLD 262337
TAFMCK
TAF
KMCK 262337Z 2700/2724 06005KT P6SM SCT060
     FM270600 12004KT P6SM SCT250
     FM271400 15010KT P6SM BKN250
     FM271900 14012G17KT P6SM BKN070
     FM272300 14016G24KT 6SM +TSRA BKN040CB=



000
FTUS43 KGLD 262337
TAFGLD
TAF
KGLD 262337Z 2700/2724 10008KT P6SM BKN100
     FM270200 14004KT P6SM SCT080
     FM270500 17009KT P6SM BKN070
     FM271500 17015G23KT P6SM SCT150
     FM272000 16013G21KT P6SM VCTS BKN060CB=



000
FTUS43 KGLD 262225 AAA
TAFGLD
TAF AMD
KGLD 262225Z 2622/2718 34010KT P6SM SCT100
      TEMPO 2623/2624 20015G30KT
     FM270100 11004KT P6SM SCT110
     FM271400 17010KT P6SM SCT200=



000
FTUS43 KGLD 261758
TAFGLD
TAF
KGLD 261758Z 2618/2718 34010KT P6SM SCT040
     FM270100 11004KT P6SM SCT110
     FM271400 17010KT P6SM SCT200=



000
FTUS43 KGLD 261758
TAFMCK
TAF
KMCK 261758Z 2618/2718 33009KT P6SM BKN040
     FM270100 03005KT P6SM SCT080
     FM271600 15009KT P6SM BKN250=



000
FTUS43 KGLD 261758
TAFMCK
TAF
KMCK 261758Z 2618/2718 33009KT P6SM BKN040
     FM270100 03005KT P6SM SCT080
     FM271600 15009KT P6SM BKN250=



000
FTUS43 KGLD 261120
TAFMCK
TAF
KMCK 261120Z 2612/2712 31009KT P6SM SCT020 SCT080 BKN180
      TEMPO 2612/2616 BKN020
     FM261700 33008KT P6SM BKN050
     FM270000 VRB04KT P6SM BKN060
     FM270300 07005KT P6SM BKN060=



000
FTUS43 KGLD 261120
TAFMCK
TAF
KMCK 261120Z 2612/2712 31009KT P6SM SCT020 SCT080 BKN180
      TEMPO 2612/2616 BKN020
     FM261700 33008KT P6SM BKN050
     FM270000 VRB04KT P6SM BKN060
     FM270300 07005KT P6SM BKN060=



000
FTUS43 KGLD 261120
TAFGLD
TAF
KGLD 261120Z 2612/2712 30006KT P6SM FEW080 SCT250
     FM261500 34007KT P6SM BKN070
     FM262200 VRB04KT P6SM BKN060
     FM270300 15005KT P6SM SCT070 SCT150=



000
FTUS43 KGLD 260521
TAFMCK
TAF
KMCK 260521Z 2606/2706 29009KT P6SM BKN200
     FM261100 30008KT P6SM BKN025
     FM261600 33010KT P6SM SCT110
     FM262300 VRB05KT P6SM SCT200
     FM270400 13004KT P6SM SCT200=



000
FTUS43 KGLD 260521
TAFGLD
TAF
KGLD 260521Z 2606/2706 30007KT P6SM BKN250
     FM261800 VRB05KT P6SM SCT090
     FM270200 16005KT P6SM SCT200=



000
FTUS43 KGLD 260521
TAFMCK
TAF
KMCK 260521Z 2606/2706 29009KT P6SM BKN200
     FM261100 30008KT P6SM BKN025
     FM261600 33010KT P6SM SCT110
     FM262300 VRB05KT P6SM SCT200
     FM270400 13004KT P6SM SCT200=



000
FTUS43 KGLD 260521
TAFGLD
TAF
KGLD 260521Z 2606/2706 30007KT P6SM BKN250
     FM261800 VRB05KT P6SM SCT090
     FM270200 16005KT P6SM SCT200=



000
FTUS43 KGLD 260521
TAFMCK
TAF
KMCK 260521Z 2606/2706 29009KT P6SM BKN200
     FM261100 30008KT P6SM BKN025
     FM261600 33010KT P6SM SCT110
     FM262300 VRB05KT P6SM SCT200
     FM270400 13004KT P6SM SCT200=



000
FTUS43 KGLD 252330
TAFGLD
TAF
KGLD 252330Z 2600/2624 31010KT P6SM SCT250
     FM261500 35008KT P6SM SCT250
     FM261900 VRB05KT P6SM SCT120=



000
FTUS43 KGLD 252330
TAFMCK
TAF
KMCK 252330Z 2600/2624 28012G17KT P6SM SCT250
     FM260100 30008KT P6SM BKN150
     FM261100 30006KT P6SM BKN025
     FM261500 32009KT P6SM SCT035=



000
FTUS43 KGLD 252330
TAFMCK
TAF
KMCK 252330Z 2600/2624 28012G17KT P6SM SCT250
     FM260100 30008KT P6SM BKN150
     FM261100 30006KT P6SM BKN025
     FM261500 32009KT P6SM SCT035=



000
FTUS43 KGLD 252330
TAFMCK
TAF
KMCK 252330Z 2600/2624 28012G17KT P6SM SCT250
     FM260100 30008KT P6SM BKN150
     FM261100 30006KT P6SM BKN025
     FM261500 32009KT P6SM SCT035=



000
FTUS43 KGLD 252330
TAFGLD
TAF
KGLD 252330Z 2600/2624 31010KT P6SM SCT250
     FM261500 35008KT P6SM SCT250
     FM261900 VRB05KT P6SM SCT120=



000
FTUS43 KGLD 252330
TAFMCK
TAF
KMCK 252330Z 2600/2624 28012G17KT P6SM SCT250
     FM260100 30008KT P6SM BKN150
     FM261100 30006KT P6SM BKN025
     FM261500 32009KT P6SM SCT035=



000
FTUS43 KGLD 252226 AAB
TAFGLD
TAF AMD
KGLD 252226Z 2522/2618 33011KT P6SM FEW060 SCT150
     FM260200 32006KT P6SM BKN250=



000
FTUS43 KGLD 252225 AAA
TAFMCK
TAF AMD
KMCK 252225Z 2522/2618 28011KT P6SM FEW060 SCT250
     FM260100 28007KT P6SM VCSH SCT090 BKN250
     FM260400 30007KT P6SM BKN250=



000
FTUS43 KGLD 252225 AAA
TAFMCK
TAF AMD
KMCK 252225Z 2522/2618 28011KT P6SM FEW060 SCT250
     FM260100 28007KT P6SM VCSH SCT090 BKN250
     FM260400 30007KT P6SM BKN250=



000
FTUS43 KGLD 251726
TAFGLD
TAF
KGLD 251726Z 2518/2618 30011KT P6SM SCT250
     FM252000 25009KT P6SM VCSH SCT030 BKN150
     FM260200 32006KT P6SM BKN250=



000
FTUS43 KGLD 251726
TAFMCK
TAF
KMCK 251726Z 2518/2618 30008KT P6SM SCT250
     FM252000 26012G18KT P6SM VCSH BKN090
     FM252300 22012G17KT 6SM -SHRA VCTS SCT030CB BKN090
     FM260100 28007KT P6SM VCSH SCT090 BKN250
     FM260400 30007KT P6SM BKN250=



000
FTUS43 KGLD 251726
TAFMCK
TAF
KMCK 251726Z 2518/2618 30008KT P6SM SCT250
     FM252000 26012G18KT P6SM VCSH BKN090
     FM252300 22012G17KT 6SM -SHRA VCTS SCT030CB BKN090
     FM260100 28007KT P6SM VCSH SCT090 BKN250
     FM260400 30007KT P6SM BKN250=



000
FTUS43 KGLD 251216 AAA
TAFMCK
TAF AMD
KMCK 251216Z 2512/2612 VRB04KT P6SM SCT120
      TEMPO 2512/2515 3SM BR SCT005
     FM251800 23008KT P6SM BKN070
     FM252000 23010KT 6SM -TSRA BKN090CB
     FM260100 23010KT P6SM BKN070
     FM260200 28009KT P6SM BKN070=



000
FTUS43 KGLD 251216 AAA
TAFMCK
TAF AMD
KMCK 251216Z 2512/2612 VRB04KT P6SM SCT120
      TEMPO 2512/2515 3SM BR SCT005
     FM251800 23008KT P6SM BKN070
     FM252000 23010KT 6SM -TSRA BKN090CB
     FM260100 23010KT P6SM BKN070
     FM260200 28009KT P6SM BKN070=



000
FTUS43 KGLD 251121
TAFMCK
TAF
KMCK 251121Z 2512/2612 VRB04KT P6SM SCT120
     FM251800 23008KT P6SM BKN070
     FM252000 23010KT 6SM -TSRA BKN090CB
     FM260100 23010KT P6SM BKN070
     FM260200 28009KT P6SM BKN070=



000
FTUS43 KGLD 251121
TAFMCK
TAF
KMCK 251121Z 2512/2612 VRB04KT P6SM SCT120
     FM251800 23008KT P6SM BKN070
     FM252000 23010KT 6SM -TSRA BKN090CB
     FM260100 23010KT P6SM BKN070
     FM260200 28009KT P6SM BKN070=



000
FTUS43 KGLD 251121
TAFGLD
TAF
KGLD 251121Z 2512/2612 26006KT P6SM OVC200
     FM251800 27010KT P6SM BKN050
     FM260000 21006KT P6SM BKN070
     FM260600 30007KT P6SM BKN070=



000
FTUS43 KGLD 251031 AAB
TAFGLD
TAF AMD
KGLD 251031Z 2511/2606 28008KT P6SM SKC
     FM251400 31010KT P6SM BKN035
     FM252300 34006KT P6SM VCSH BKN050=



000
FTUS43 KGLD 250924 AAA
TAFMCK
TAF AMD
KMCK 250924Z 2509/2606 26009KT P6SM BKN080 OVC090
     FM251100 VRB05KT 5SM BR OVC015
     FM251500 31010G16KT P6SM BKN035
     FM260000 31006KT P6SM VCSH BKN050=



000
FTUS43 KGLD 250924 AAA
TAFMCK
TAF AMD
KMCK 250924Z 2509/2606 26009KT P6SM BKN080 OVC090
     FM251100 VRB05KT 5SM BR OVC015
     FM251500 31010G16KT P6SM BKN035
     FM260000 31006KT P6SM VCSH BKN050=



000
FTUS43 KGLD 250520
TAFGLD
TAF
KGLD 250520Z 2506/2606 VRB05KT 6SM -SHRA BR BKN080
     FM251000 VRB05KT 3SM -SHRA BR BKN015
     FM251400 31010G16KT P6SM BKN035
     FM252300 34006KT P6SM VCSH BKN050=



000
FTUS43 KGLD 250520
TAFMCK
TAF
KMCK 250520Z 2506/2606 VRB04KT 6SM -SHRA BR BKN050
     FM250900 VRB05KT 3SM -SHRA BR OVC015
     FM251500 31010G16KT P6SM VCSH BKN030
     FM260000 31006KT P6SM VCSH BKN050=



000
FTUS43 KGLD 250520
TAFMCK
TAF
KMCK 250520Z 2506/2606 VRB04KT 6SM -SHRA BR BKN050
     FM250900 VRB05KT 3SM -SHRA BR OVC015
     FM251500 31010G16KT P6SM VCSH BKN030
     FM260000 31006KT P6SM VCSH BKN050=



000
FTUS43 KGLD 250331 AAB
TAFMCK
TAF AMD
KMCK 250331Z 2504/2524 33008KT 4SM -TSRA BR BKN050CB
     FM250900 06006KT 3SM -SHRA BR OVC015
     FM251600 31010G16KT P6SM VCSH BKN030=



000
FTUS43 KGLD 250236 AAA
TAFMCK
TAF AMD
KMCK 250236Z 2503/2524 14010G16KT P6SM VCSH BKN040
     FM250330 VRB06KT 6SM -TSRA BKN050CB
     FM250900 06006KT 3SM -SHRA BR OVC015
     FM251600 31010G16KT P6SM VCSH BKN030=



000
FTUS43 KGLD 250236 AAA
TAFMCK
TAF AMD
KMCK 250236Z 2503/2524 14010G16KT P6SM VCSH BKN040
     FM250330 VRB06KT 6SM -TSRA BKN050CB
     FM250900 06006KT 3SM -SHRA BR OVC015
     FM251600 31010G16KT P6SM VCSH BKN030=



000
FTUS43 KGLD 250235 AAC
TAFGLD
TAF AMD
KGLD 250235Z 2503/2524 34010KT 6SM -TSRA BKN060CB
     FM250500 VRB05KT 3SM -SHRA BR BKN010
     FM250900 34010KT 6SM -SHRA BR BKN015
     FM251400 31010G16KT P6SM BKN035=



000
FTUS43 KGLD 250047 AAB
TAFGLD
TAF AMD
KGLD 250047Z 2501/2524 VRB20G30KT 6SM -TSRA BKN060CB
      TEMPO 2501/2502 2SM TSRA BR BKN040CB
     FM250500 VRB05KT 3SM -SHRA BR BKN010
     FM250900 34010KT 6SM -SHRA BR BKN015
     FM251400 31010G16KT P6SM BKN035=



000
FTUS43 KGLD 250015 AAA
TAFGLD
TAF AMD
KGLD 250015Z 2500/2524 13012G18KT 6SM -TSRA BKN060CB
      TEMPO 2500/2502 2SM TSRA BR BKN040CB
     FM250500 VRB05KT 3SM -SHRA BR BKN010
     FM250900 34010KT 6SM -SHRA BR BKN015
     FM251400 31010G16KT P6SM BKN035=



000
FTUS43 KGLD 250015 AAA
TAFGLD
TAF AMD
KGLD 250015Z 2500/2524 13012G18KT 6SM -TSRA BKN060CB
      TEMPO 2500/2502 2SM TSRA BR BKN040CB
     FM250500 VRB05KT 3SM -SHRA BR BKN010
     FM250900 34010KT 6SM -SHRA BR BKN015
     FM251400 31010G16KT P6SM BKN035=



000
FTUS43 KGLD 242320
TAFGLD
TAF
KGLD 242320Z 2500/2524 13012G18KT P6SM VCSH BKN045
     FM250100 12011KT 6SM -TSRA BKN060CB
     FM250500 VRB05KT 3SM -SHRA BR BKN010
     FM250900 34010KT 6SM -SHRA BR BKN015
     FM251400 31010G16KT P6SM BKN035=



000
FTUS43 KGLD 242320
TAFMCK
TAF
KMCK 242320Z 2500/2524 09010G16KT P6SM BKN040
     FM250300 VRB06KT 6SM -TSRA BKN050CB
     FM250900 06006KT 3SM -SHRA BR OVC015
     FM251600 31010G16KT P6SM VCSH BKN030=



000
FTUS43 KGLD 242320
TAFMCK
TAF
KMCK 242320Z 2500/2524 09010G16KT P6SM BKN040
     FM250300 VRB06KT 6SM -TSRA BKN050CB
     FM250900 06006KT 3SM -SHRA BR OVC015
     FM251600 31010G16KT P6SM VCSH BKN030=



000
FTUS43 KGLD 242320
TAFMCK
TAF
KMCK 242320Z 2500/2524 09010G16KT P6SM BKN040
     FM250300 VRB06KT 6SM -TSRA BKN050CB
     FM250900 06006KT 3SM -SHRA BR OVC015
     FM251600 31010G16KT P6SM VCSH BKN030=



000
FTUS43 KGLD 242320
TAFGLD
TAF
KGLD 242320Z 2500/2524 13012G18KT P6SM VCSH BKN045
     FM250100 12011KT 6SM -TSRA BKN060CB
     FM250500 VRB05KT 3SM -SHRA BR BKN010
     FM250900 34010KT 6SM -SHRA BR BKN015
     FM251400 31010G16KT P6SM BKN035=



000
FTUS43 KGLD 242320
TAFMCK
TAF
KMCK 242320Z 2500/2524 09010G16KT P6SM BKN040
     FM250300 VRB06KT 6SM -TSRA BKN050CB
     FM250900 06006KT 3SM -SHRA BR OVC015
     FM251600 31010G16KT P6SM VCSH BKN030=



    US Dept of Commerce
    National Oceanic and Atmospheric Administration
    National Weather Service
    1325 East West Highway
    Silver Spring, MD 20910
    Page Author: NWS Internet Services Team
Disclaimer
Information Quality
Credits
Glossary
Privacy Policy
Freedom of Information Act (FOIA)
About Us
Career Opportunities